createdAt,value
2022-10-16T00:01:21.314Z,99602.88
2022-10-16T00:03:48.526Z,99596.19
2022-10-16T00:06:16.775Z,99595.34
2022-10-16T00:08:45.841Z,99594.13
2022-10-16T00:11:16.410Z,99607.22
2022-10-16T00:13:45.111Z,99601.56
2022-10-16T00:16:13.154Z,99606.44
2022-10-16T00:18:40.067Z,99605.44
2022-10-16T00:21:09.679Z,99607.50
2022-10-16T00:23:36.481Z,99617.22
2022-10-16T00:26:09.758Z,99612.78
2022-10-16T00:28:36.690Z,99604.78
2022-10-16T00:31:05.074Z,99608.91
2022-10-16T00:33:31.547Z,99612.53
2022-10-16T00:36:03.129Z,99610.06
2022-10-16T00:38:30.022Z,99612.22
2022-10-16T00:40:57.004Z,99619.03
2022-10-16T00:43:35.330Z,99617.53
2022-10-16T00:46:03.726Z,99615.19
2022-10-16T00:48:30.610Z,99609.22
2022-10-16T00:50:57.992Z,99614.75
2022-10-16T00:53:26.087Z,99617.84
2022-10-16T00:55:53.196Z,99619.13
2022-10-16T00:58:19.666Z,99618.84
2022-10-16T01:00:46.114Z,99612.03
2022-10-16T01:03:30.618Z,99619.59
2022-10-16T01:06:19.467Z,99621.09
2022-10-16T01:08:52.897Z,99607.28
2022-10-16T01:11:49.546Z,99620.47
2022-10-16T01:14:23.258Z,99620.84
2022-10-16T01:16:56.815Z,99623.16
2022-10-16T01:19:47.267Z,99628.13
2022-10-16T01:22:14.523Z,99624.75
2022-10-16T01:24:45.640Z,99629.50
2022-10-16T01:27:36.908Z,99631.88
2022-10-16T01:30:10.834Z,99633.56
2022-10-16T01:32:41.754Z,99637.72
2022-10-16T01:35:19.634Z,99647.72
2022-10-16T01:37:57.702Z,99654.19
2022-10-16T01:40:26.711Z,99661.16
2022-10-16T01:43:03.218Z,99663.34
2022-10-16T01:45:31.656Z,99662.44
2022-10-16T01:47:58.505Z,99658.75
2022-10-16T01:50:25.584Z,99654.69
2022-10-16T01:52:53.575Z,99651.31
2022-10-16T01:55:24.270Z,99648.13
2022-10-16T01:57:51.455Z,99652.72
2022-10-16T02:00:20.242Z,99650.63
2022-10-16T02:02:50.209Z,99654.94
2022-10-16T02:05:37.897Z,99662.25
2022-10-16T02:08:05.719Z,99663.84
2022-10-16T02:10:33.137Z,99670.00
2022-10-16T02:13:07.597Z,99660.09
2022-10-16T02:15:34.136Z,99662.34
2022-10-16T02:18:01.019Z,99656.81
2022-10-16T02:20:29.437Z,99665.16
2022-10-16T02:22:57.077Z,99671.41
2022-10-16T02:25:26.140Z,99670.19
2022-10-16T02:27:54.976Z,99668.13
2022-10-16T02:30:28.301Z,99667.47
2022-10-16T02:32:55.356Z,99671.97
2022-10-16T02:35:23.778Z,99671.91
2022-10-16T02:37:51.385Z,99665.84
2022-10-16T02:40:20.381Z,99673.25
2022-10-16T02:42:53.399Z,99682.81
2022-10-16T02:45:20.142Z,99678.31
2022-10-16T02:47:46.602Z,99678.28
2022-10-16T02:50:13.114Z,99679.72
2022-10-16T02:52:39.728Z,99673.66
2022-10-16T02:55:06.492Z,99671.84
2022-10-16T02:57:33.226Z,99679.16
2022-10-16T02:59:59.976Z,99673.72
2022-10-16T03:02:26.725Z,99672.09
2022-10-16T03:04:53.132Z,99665.84
2022-10-16T03:07:19.497Z,99666.09
2022-10-16T03:09:45.988Z,99671.72
2022-10-16T03:12:13.086Z,99667.91
2022-10-16T03:14:40.821Z,99680.13
2022-10-16T03:17:07.543Z,99673.78
2022-10-16T03:19:33.909Z,99683.34
2022-10-16T03:22:00.296Z,99693.81
2022-10-16T03:24:26.675Z,99687.72
2022-10-16T03:26:53.050Z,99684.88
2022-10-16T03:29:19.587Z,99688.59
2022-10-16T03:31:45.973Z,99673.94
2022-10-16T03:34:12.402Z,99680.59
2022-10-16T03:36:39.794Z,99684.28
2022-10-16T03:39:06.169Z,99685.25
2022-10-16T03:41:32.595Z,99679.00
2022-10-16T03:43:58.982Z,99679.22
2022-10-16T03:46:25.459Z,99687.31
2022-10-16T03:48:52.212Z,99683.69
2022-10-16T03:51:18.709Z,99688.41
2022-10-16T03:53:45.078Z,99691.81
2022-10-16T03:56:11.473Z,99702.38
2022-10-16T03:58:37.895Z,99702.19
2022-10-16T04:01:04.470Z,99695.38
2022-10-16T04:03:31.144Z,99698.97
2022-10-16T04:05:57.636Z,99698.06
2022-10-16T04:08:24.141Z,99699.97
2022-10-16T04:10:50.592Z,99706.25
2022-10-16T04:13:17.611Z,99708.22
2022-10-16T04:15:46.601Z,99705.31
2022-10-16T04:18:13.217Z,99716.72
2022-10-16T04:20:39.811Z,99712.88
2022-10-16T04:23:06.279Z,99707.69
2022-10-16T04:25:32.711Z,99710.25
2022-10-16T04:27:59.112Z,99708.31
2022-10-16T04:30:25.986Z,99698.78
2022-10-16T04:32:53.198Z,99698.97
2022-10-16T04:35:21.130Z,99702.78
2022-10-16T04:37:48.339Z,99709.50
2022-10-16T04:40:14.977Z,99718.88
2022-10-16T04:42:41.712Z,99715.06
2022-10-16T04:45:12.041Z,99711.06
2022-10-16T04:47:41.363Z,99717.09
2022-10-16T04:50:08.213Z,99707.97
2022-10-16T04:55:03.637Z,99708.81
2022-10-16T04:57:30.647Z,99704.88
2022-10-16T04:59:57.026Z,99713.34
2022-10-16T05:02:23.565Z,99721.38
2022-10-16T05:04:49.974Z,99723.28
2022-10-16T05:07:16.539Z,99712.72
2022-10-16T05:09:42.918Z,99728.53
2022-10-16T05:12:09.502Z,99724.09
2022-10-16T05:14:35.979Z,99713.72
2022-10-16T05:17:02.594Z,99728.44
2022-10-16T05:19:29.355Z,99721.59
2022-10-16T05:21:56.078Z,99731.34
2022-10-16T05:24:22.788Z,99731.03
2022-10-16T05:26:49.282Z,99736.19
2022-10-16T05:29:15.669Z,99744.91
2022-10-16T05:31:44.205Z,99739.66
2022-10-16T05:34:10.774Z,99741.94
2022-10-16T05:36:37.162Z,99734.75
2022-10-16T05:39:03.931Z,99724.94
2022-10-16T05:41:30.380Z,99733.44
2022-10-16T05:43:56.798Z,99738.69
2022-10-16T05:46:23.217Z,99747.91
2022-10-16T05:48:49.610Z,99742.84
2022-10-16T05:51:16.297Z,99761.97
2022-10-16T05:56:12.132Z,99775.81
2022-10-16T05:58:41.409Z,99774.78
2022-10-16T06:01:14.508Z,99770.41
2022-10-16T06:03:41.231Z,99770.38
2022-10-16T06:06:18.664Z,99781.03
2022-10-16T06:08:46.544Z,99775.00
2022-10-16T06:11:18.446Z,99776.78
2022-10-16T06:13:46.745Z,99788.47
2022-10-16T06:16:13.820Z,99795.19
2022-10-16T06:18:40.307Z,99801.72
2022-10-16T06:21:11.403Z,99801.25
2022-10-16T06:23:38.098Z,99816.00
2022-10-16T06:26:13.182Z,99816.31
2022-10-16T06:28:39.916Z,99825.94
2022-10-16T06:31:08.510Z,99835.25
2022-10-16T06:33:36.149Z,99836.22
2022-10-16T06:36:07.206Z,99843.72
2022-10-16T06:38:33.611Z,99852.47
2022-10-16T06:41:00.057Z,99852.66
2022-10-16T06:43:26.724Z,99849.81
2022-10-16T06:45:57.436Z,99857.13
2022-10-16T06:48:24.265Z,99865.53
2022-10-16T06:53:39.483Z,99871.63
2022-10-16T06:56:28.010Z,99868.09
2022-10-16T06:58:54.950Z,99869.09
2022-10-16T07:01:23.809Z,99875.13
2022-10-16T07:03:50.335Z,99884.19
2022-10-16T07:06:19.954Z,99885.16
2022-10-16T07:08:47.362Z,99893.63
2022-10-16T07:11:16.402Z,99894.31
2022-10-16T07:13:48.156Z,99892.81
2022-10-16T07:16:22.387Z,99894.81
2022-10-16T07:18:50.135Z,99886.44
2022-10-16T07:21:20.416Z,99891.69
2022-10-16T07:23:53.924Z,99902.81
2022-10-16T07:26:20.449Z,99908.53
2022-10-16T07:28:47.428Z,99917.72
2022-10-16T07:31:15.452Z,99923.59
2022-10-16T07:33:44.088Z,99933.81
2022-10-16T07:36:15.820Z,99940.72
2022-10-16T07:38:43.323Z,99946.06
2022-10-16T07:41:13.029Z,99944.19
2022-10-16T07:43:39.553Z,99952.09
2022-10-16T07:46:06.682Z,99945.00
2022-10-16T07:48:35.355Z,99955.94
2022-10-16T07:51:03.670Z,99960.06
2022-10-16T07:53:30.183Z,99957.19
2022-10-16T07:56:00.567Z,99955.72
2022-10-16T07:58:28.882Z,99965.66
2022-10-16T08:00:56.379Z,99965.22
2022-10-16T08:03:23.103Z,99963.63
2022-10-16T08:05:49.570Z,99953.78
2022-10-16T08:08:17.563Z,99938.69
2022-10-16T08:10:44.432Z,99938.66
2022-10-16T08:13:11.076Z,99947.28
2022-10-16T08:15:37.467Z,99950.47
2022-10-16T08:18:05.404Z,99963.72
2022-10-16T08:20:32.846Z,99970.03
2022-10-16T08:23:00.352Z,99965.44
2022-10-16T08:25:27.434Z,99958.75
2022-10-16T08:27:53.799Z,99964.41
2022-10-16T08:30:21.581Z,99966.09
2022-10-16T08:32:48.066Z,99969.66
2022-10-16T08:35:15.823Z,99969.00
2022-10-16T08:37:42.789Z,99973.78
2022-10-16T08:40:21.450Z,99986.28
2022-10-16T08:43:11.914Z,99980.13
2022-10-16T08:45:41.287Z,99982.03
2022-10-16T08:48:12.036Z,99984.41
2022-10-16T08:50:40.364Z,99980.03
2022-10-16T08:53:07.390Z,99980.63
2022-10-16T08:55:43.946Z,99979.16
2022-10-16T08:58:15.720Z,99970.25
2022-10-16T09:00:43.710Z,99978.66
2022-10-16T09:03:40.892Z,99980.69
2022-10-16T09:06:22.203Z,99976.63
2022-10-16T09:09:13.157Z,99977.81
2022-10-16T09:11:48.150Z,99971.94
2022-10-16T09:14:37.340Z,99966.53
2022-10-16T09:17:43.352Z,99955.91
2022-10-16T09:20:27.580Z,99972.19
2022-10-16T09:23:11.578Z,99992.66
2022-10-16T09:25:40.062Z,99990.44
2022-10-16T09:28:06.803Z,99992.44
2022-10-16T09:30:33.273Z,99993.69
2022-10-16T09:32:59.885Z,99994.16
2022-10-16T09:35:36.730Z,99991.13
2022-10-16T09:38:03.297Z,100000.66
2022-10-16T09:40:32.599Z,100004.59
2022-10-16T09:43:04.882Z,100007.03
2022-10-16T09:45:31.330Z,100009.06
2022-10-16T09:47:58.082Z,100010.38
2022-10-16T09:50:27.379Z,100003.44
2022-10-16T09:53:07.139Z,100004.94
2022-10-16T09:55:33.712Z,100007.75
2022-10-16T09:58:00.112Z,100014.56
2022-10-16T10:00:27.203Z,100016.84
2022-10-16T10:05:31.224Z,100020.88
2022-10-16T10:08:03.925Z,100028.03
2022-10-16T10:10:32.296Z,100027.06
2022-10-16T10:12:59.172Z,100019.72
2022-10-16T10:15:27.815Z,100022.78
2022-10-16T10:17:55.960Z,100025.97
2022-10-16T10:20:25.540Z,100025.53
2022-10-16T10:22:52.374Z,100020.78
2022-10-16T10:25:36.968Z,100039.28
2022-10-16T10:28:28.277Z,100038.53
2022-10-16T10:31:16.840Z,100043.81
2022-10-16T10:33:51.199Z,100037.59
2022-10-16T10:36:35.375Z,100041.72
2022-10-16T10:39:15.638Z,100041.88
2022-10-16T10:42:13.154Z,100047.09
2022-10-16T10:44:57.236Z,100041.19
2022-10-16T10:47:31.924Z,100043.22
2022-10-16T10:50:09.701Z,100047.66
2022-10-16T10:52:53.490Z,100052.81
2022-10-16T10:55:26.719Z,100060.81
2022-10-16T10:58:00.633Z,100056.91
2022-10-16T11:00:55.019Z,100059.75
2022-10-16T11:03:40.287Z,100054.97
2022-10-16T11:06:13.485Z,100049.81
2022-10-16T11:08:43.976Z,100041.94
2022-10-16T11:11:25.441Z,100034.31
2022-10-16T11:13:59.684Z,100039.28
2022-10-16T11:16:33.737Z,100052.88
2022-10-16T11:19:04.714Z,100042.03
2022-10-16T11:21:37.898Z,100044.56
2022-10-16T11:24:32.297Z,100051.56
2022-10-16T11:27:05.174Z,100045.19
2022-10-16T11:29:32.656Z,100038.69
2022-10-16T11:32:19.436Z,100047.22
2022-10-16T11:34:50.544Z,100044.22
2022-10-16T11:37:25.466Z,100052.97
2022-10-16T11:39:53.478Z,100063.28
2022-10-16T11:42:39.895Z,100063.59
2022-10-16T11:45:27.821Z,100062.94
2022-10-16T11:48:33.603Z,100063.28
2022-10-16T11:51:20.531Z,100070.53
2022-10-16T11:53:47.644Z,100075.72
2022-10-16T11:56:17.142Z,100076.72
2022-10-16T11:58:57.949Z,100070.31
2022-10-16T12:01:44.509Z,100075.38
2022-10-16T12:04:20.135Z,100067.22
2022-10-16T12:07:02.571Z,100075.47
2022-10-16T12:09:31.876Z,100071.75
2022-10-16T12:11:59.019Z,100071.50
2022-10-16T12:14:28.531Z,100071.28
2022-10-16T12:16:57.759Z,100073.91
2022-10-16T12:19:26.076Z,100069.22
2022-10-16T12:21:53.819Z,100069.13
2022-10-16T12:24:42.453Z,100068.59
2022-10-16T12:27:26.894Z,100065.28
2022-10-16T12:29:57.951Z,100076.75
2022-10-16T12:32:51.532Z,100081.31
2022-10-16T12:35:29.782Z,100080.66
2022-10-16T12:38:06.780Z,100078.25
2022-10-16T12:40:34.985Z,100078.84
2022-10-16T12:43:13.045Z,100078.50
2022-10-16T12:45:39.486Z,100081.56
2022-10-16T12:48:20.654Z,100095.41
2022-10-16T12:50:47.068Z,100087.81
2022-10-16T12:53:20.535Z,100093.97
2022-10-16T12:55:58.958Z,100097.28
2022-10-16T12:58:25.392Z,100099.00
2022-10-16T13:00:59.149Z,100089.38
2022-10-16T13:03:25.603Z,100102.22
2022-10-16T13:06:04.372Z,100093.44
2022-10-16T13:09:01.955Z,100107.69
2022-10-16T13:12:05.759Z,100110.09
2022-10-16T13:14:46.070Z,100111.53
2022-10-16T13:17:35.552Z,100108.28
2022-10-16T13:20:35.370Z,100107.56
2022-10-16T13:23:26.478Z,100110.66
2022-10-16T13:26:11.242Z,100114.97
2022-10-16T13:28:40.486Z,100105.06
2022-10-16T13:31:15.220Z,100103.16
2022-10-16T13:33:45.965Z,100107.91
2022-10-16T13:36:24.288Z,100099.53
2022-10-16T13:39:02.918Z,100113.16
2022-10-16T13:41:29.543Z,100114.38
2022-10-16T13:43:57.567Z,100102.97
2022-10-16T13:46:25.962Z,100114.19
2022-10-16T13:49:04.437Z,100114.00
2022-10-16T13:51:32.062Z,100110.31
2022-10-16T13:53:59.280Z,100111.88
2022-10-16T13:56:28.434Z,100115.41
2022-10-16T13:59:27.506Z,100112.66
2022-10-16T14:01:56.339Z,100117.81
2022-10-16T14:04:22.979Z,100121.25
2022-10-16T14:06:51.679Z,100109.81
2022-10-16T14:09:28.084Z,100116.41
2022-10-16T14:12:03.495Z,100123.84
2022-10-16T14:14:36.434Z,100126.59
2022-10-16T14:17:03.557Z,100129.81
2022-10-16T14:19:30.731Z,100125.94
2022-10-16T14:21:57.674Z,100138.19
2022-10-16T14:24:34.310Z,100129.81
2022-10-16T14:27:01.579Z,100128.22
2022-10-16T14:29:29.799Z,100127.03
2022-10-16T14:32:01.396Z,100126.06
2022-10-16T14:34:40.956Z,100131.31
2022-10-16T14:37:22.632Z,100129.88
2022-10-16T14:39:52.412Z,100123.91
2022-10-16T14:42:20.391Z,100127.81
2022-10-16T14:44:48.188Z,100127.47
2022-10-16T14:47:17.215Z,100123.03
2022-10-16T14:49:44.040Z,100133.00
2022-10-16T14:52:12.438Z,100141.47
2022-10-16T14:54:39.111Z,100141.41
2022-10-16T14:57:05.998Z,100147.34
2022-10-16T14:59:44.983Z,100145.88
2022-10-16T15:02:31.276Z,100150.28
2022-10-16T15:04:58.497Z,100148.91
2022-10-16T15:07:25.940Z,100161.19
2022-10-16T15:09:53.218Z,100154.63
2022-10-16T15:12:19.842Z,100163.03
2022-10-16T15:14:46.223Z,100161.97
2022-10-16T15:17:12.718Z,100162.03
2022-10-16T15:19:39.287Z,100159.75
2022-10-16T15:22:05.727Z,100178.13
2022-10-16T15:24:32.166Z,100169.47
2022-10-16T15:26:58.804Z,100179.06
2022-10-16T15:29:25.192Z,100182.59
2022-10-16T15:31:51.722Z,100181.72
2022-10-16T15:34:20.074Z,100178.97
2022-10-16T15:36:46.599Z,100184.28
2022-10-16T15:39:14.831Z,100194.69
2022-10-16T15:41:42.322Z,100196.94
2022-10-16T15:44:08.908Z,100191.63
2022-10-16T15:46:35.791Z,100197.56
2022-10-16T15:49:02.272Z,100196.28
2022-10-16T15:51:30.348Z,100193.91
2022-10-16T15:53:57.898Z,100195.81
2022-10-16T15:56:26.387Z,100198.16
2022-10-16T15:58:53.431Z,100188.31
2022-10-16T16:01:20.015Z,100193.22
2022-10-16T16:03:46.693Z,100198.97
2022-10-16T16:06:14.580Z,100193.28
2022-10-16T16:08:41.098Z,100207.41
2022-10-16T16:11:13.139Z,100210.34
2022-10-16T16:13:40.005Z,100211.41
2022-10-16T16:16:15.121Z,100208.69
2022-10-16T16:18:42.348Z,100209.91
2022-10-16T16:21:15.184Z,100211.59
2022-10-16T16:23:41.620Z,100212.84
2022-10-16T16:26:15.133Z,100221.44
2022-10-16T16:28:44.337Z,100228.13
2022-10-16T16:31:12.419Z,100235.66
2022-10-16T16:33:39.311Z,100232.06
2022-10-16T16:36:11.559Z,100231.19
2022-10-16T16:38:38.398Z,100236.41
2022-10-16T16:41:21.662Z,100240.16
2022-10-16T16:43:48.469Z,100240.16
2022-10-16T16:46:15.759Z,100249.94
2022-10-16T16:48:42.685Z,100250.16
2022-10-16T16:51:17.048Z,100262.09
2022-10-16T16:53:44.750Z,100250.69
2022-10-16T16:56:11.539Z,100258.16
2022-10-16T16:58:37.989Z,100262.06
2022-10-16T17:01:21.364Z,100261.09
2022-10-16T17:03:52.878Z,100263.53
2022-10-16T17:06:25.918Z,100269.13
2022-10-16T17:08:52.358Z,100263.06
2022-10-16T17:11:21.987Z,100283.25
2022-10-16T17:13:51.177Z,100274.41
2022-10-16T17:16:23.354Z,100270.50
2022-10-16T17:18:49.800Z,100269.59
2022-10-16T17:21:16.637Z,100268.69
2022-10-16T17:23:43.043Z,100274.91
2022-10-16T17:26:14.807Z,100279.41
2022-10-16T17:28:41.843Z,100284.69
2022-10-16T17:31:14.481Z,100273.53
2022-10-16T17:33:41.328Z,100278.47
2022-10-16T17:36:08.261Z,100280.25
2022-10-16T17:38:35.793Z,100277.16
2022-10-16T17:41:13.968Z,100276.88
2022-10-16T17:43:40.697Z,100281.78
2022-10-16T17:46:08.475Z,100286.75
2022-10-16T17:48:39.758Z,100297.34
2022-10-16T17:51:11.130Z,100300.63
2022-10-16T17:53:38.499Z,100306.22
2022-10-16T17:56:06.834Z,100310.56
2022-10-16T17:58:33.451Z,100307.94
2022-10-16T18:01:00.651Z,100311.13
2022-10-16T18:03:27.352Z,100317.03
2022-10-16T18:05:55.642Z,100323.94
2022-10-16T18:08:25.053Z,100320.94
2022-10-16T18:10:54.404Z,100319.25
2022-10-16T18:13:20.844Z,100324.25
2022-10-16T18:15:47.270Z,100328.47
2022-10-16T18:18:14.371Z,100330.78
2022-10-16T18:20:40.795Z,100332.09
2022-10-16T18:23:07.245Z,100337.19
2022-10-16T18:25:33.635Z,100345.44
2022-10-16T18:28:01.100Z,100341.50
2022-10-16T18:30:27.663Z,100346.75
2022-10-16T18:32:54.106Z,100354.69
2022-10-16T18:35:20.531Z,100348.16
2022-10-16T18:37:46.938Z,100352.19
2022-10-16T18:40:13.338Z,100355.38
2022-10-16T18:42:40.413Z,100358.38
2022-10-16T18:45:07.441Z,100352.28
2022-10-16T18:47:33.924Z,100356.59
2022-10-16T18:50:00.821Z,100345.06
2022-10-16T18:52:29.652Z,100350.41
2022-10-16T18:54:57.929Z,100352.47
2022-10-16T18:57:24.812Z,100354.34
2022-10-16T18:59:55.134Z,100348.34
2022-10-16T19:02:22.852Z,100350.28
2022-10-16T19:04:52.719Z,100341.66
2022-10-16T19:07:19.223Z,100331.81
2022-10-16T19:09:45.616Z,100332.84
2022-10-16T19:12:14.800Z,100328.47
2022-10-16T19:14:42.860Z,100325.09
2022-10-16T19:17:09.424Z,100338.94
2022-10-16T19:19:38.461Z,100346.06
2022-10-16T19:22:23.642Z,100344.38
2022-10-16T19:24:51.975Z,100353.31
2022-10-16T19:27:18.466Z,100361.63
2022-10-16T19:29:45.208Z,100361.09
2022-10-16T19:32:14.053Z,100364.28
2022-10-16T19:34:41.251Z,100365.31
2022-10-16T19:37:10.447Z,100371.97
2022-10-16T19:39:36.907Z,100382.84
2022-10-16T19:42:03.457Z,100374.56
2022-10-16T19:44:30.999Z,100380.00
2022-10-16T19:46:57.654Z,100379.34
2022-10-16T19:49:28.248Z,100386.84
2022-10-16T19:51:57.229Z,100392.09
2022-10-16T19:54:23.736Z,100392.56
2022-10-16T19:56:50.249Z,100393.41
2022-10-16T19:59:19.220Z,100401.00
2022-10-16T20:01:46.726Z,100391.34
2022-10-16T20:04:14.307Z,100387.78
2022-10-16T20:06:40.792Z,100386.28
2022-10-16T20:09:07.306Z,100382.19
2022-10-16T20:11:35.554Z,100379.38
2022-10-16T20:14:02.275Z,100374.69
2022-10-16T20:16:30.862Z,100386.03
2022-10-16T20:18:59.080Z,100385.66
2022-10-16T20:21:27.709Z,100390.88
2022-10-16T20:23:54.326Z,100387.28
2022-10-16T20:26:22.425Z,100388.72
2022-10-16T20:28:49.029Z,100385.59
2022-10-16T20:31:22.833Z,100376.41
2022-10-16T20:33:50.726Z,100387.66
2022-10-16T20:36:17.932Z,100394.91
2022-10-16T20:38:44.725Z,100403.50
2022-10-16T20:41:12.290Z,100403.13
2022-10-16T20:46:18.422Z,100407.91
2022-10-16T20:48:46.718Z,100412.75
2022-10-16T20:51:19.226Z,100411.97
2022-10-16T20:53:47.206Z,100422.53
2022-10-16T20:56:15.886Z,100420.56
2022-10-16T20:58:42.634Z,100419.59
2022-10-16T21:01:11.411Z,100417.78
2022-10-16T21:03:38.398Z,100426.81
2022-10-16T21:06:06.863Z,100430.97
2022-10-16T21:08:40.697Z,100436.47
2022-10-16T21:11:21.617Z,100437.38
2022-10-16T21:13:48.168Z,100443.75
2022-10-16T21:16:15.362Z,100442.41
2022-10-16T21:18:44.681Z,100449.91
2022-10-16T21:21:19.646Z,100448.28
2022-10-16T21:23:46.478Z,100456.44
2022-10-16T21:26:13.535Z,100454.63
2022-10-16T21:28:40.210Z,100453.63
2022-10-16T21:31:21.377Z,100455.16
2022-10-16T21:33:48.738Z,100454.34
2022-10-16T21:36:20.705Z,100456.72
2022-10-16T21:38:47.777Z,100460.59
2022-10-16T21:41:23.536Z,100454.34
2022-10-16T21:43:52.840Z,100454.34
2022-10-16T21:46:21.273Z,100459.09
2022-10-16T21:48:48.092Z,100445.22
2022-10-16T21:51:15.196Z,100449.44
2022-10-16T21:53:41.636Z,100444.72
2022-10-16T21:56:18.167Z,100444.22
2022-10-16T21:58:45.871Z,100449.81
2022-10-16T22:01:15.364Z,100446.13
2022-10-16T22:03:42.384Z,100458.31
2022-10-16T22:06:10.253Z,100447.47
2022-10-16T22:08:38.380Z,100439.03
2022-10-16T22:11:22.209Z,100449.19
2022-10-16T22:13:54.319Z,100449.50
2022-10-16T22:16:24.383Z,100448.16
2022-10-16T22:18:55.751Z,100444.75
2022-10-16T22:21:22.746Z,100448.50
2022-10-16T22:23:49.266Z,100455.59
2022-10-16T22:26:15.847Z,100457.47
2022-10-16T22:28:42.796Z,100454.25
2022-10-16T22:31:12.543Z,100462.00
2022-10-16T22:33:39.612Z,100468.13
2022-10-16T22:36:08.831Z,100468.47
2022-10-16T22:38:36.254Z,100474.88
2022-10-16T22:41:04.669Z,100470.66
2022-10-16T22:43:31.632Z,100466.06
2022-10-16T22:46:05.602Z,100459.63
2022-10-16T22:48:32.035Z,100459.63
2022-10-16T22:50:58.601Z,100464.38
2022-10-16T22:53:25.105Z,100458.28
2022-10-16T22:55:51.790Z,100454.00
2022-10-16T22:58:18.452Z,100460.25
2022-10-16T23:00:45.366Z,100459.13
2022-10-16T23:03:12.395Z,100454.84
2022-10-16T23:05:39.776Z,100460.59
2022-10-16T23:08:07.194Z,100459.56
2022-10-16T23:10:41.400Z,100462.28
2022-10-16T23:13:13.833Z,100458.91
2022-10-16T23:15:42.107Z,100466.84
2022-10-16T23:18:10.210Z,100464.16
2022-10-16T23:20:39.773Z,100474.13
2022-10-16T23:23:07.034Z,100462.28
2022-10-16T23:25:34.601Z,100457.88
2022-10-16T23:28:01.260Z,100457.56
2022-10-16T23:30:28.013Z,100462.84
2022-10-16T23:32:55.286Z,100471.81
2022-10-16T23:35:21.937Z,100465.69
2022-10-16T23:37:48.492Z,100476.50
2022-10-16T23:40:15.639Z,100463.13
2022-10-16T23:42:43.080Z,100465.84
2022-10-16T23:45:09.684Z,100471.09
2022-10-16T23:47:36.388Z,100466.41
2022-10-16T23:50:02.931Z,100468.53
2022-10-16T23:52:29.793Z,100473.44
2022-10-16T23:54:56.303Z,100466.31
2022-10-16T23:57:22.767Z,100467.38
2022-10-16T23:59:49.200Z,100461.09
